createdAt,value
2019-01-13T00:01:19.975Z,96.97
2019-01-13T00:06:38.658Z,97.07
2019-01-13T00:11:57.219Z,96.76
2019-01-13T00:17:15.841Z,96.92
2019-01-13T00:22:35.731Z,96.78
2019-01-13T00:27:54.377Z,96.83
2019-01-13T00:33:12.943Z,97.02
2019-01-13T00:38:31.567Z,97.23
2019-01-13T00:43:50.460Z,97.16
2019-01-13T00:49:09.129Z,97.22
2019-01-13T00:54:27.834Z,97.33
2019-01-13T00:59:46.937Z,97.38
2019-01-13T01:05:08.595Z,97.05
2019-01-13T01:10:27.254Z,96.99
2019-01-13T01:15:45.893Z,96.89
2019-01-13T01:21:04.617Z,96.76
2019-01-13T01:26:24.784Z,96.71
2019-01-13T01:31:43.425Z,96.74
2019-01-13T01:37:01.988Z,96.62
2019-01-13T01:42:20.543Z,96.21
2019-01-13T01:47:39.195Z,96.29
2019-01-13T01:52:58.052Z,96.60
2019-01-13T01:58:16.697Z,96.67
2019-01-13T02:03:35.455Z,96.29
2019-01-13T02:08:55.380Z,96.35
2019-01-13T02:14:14.055Z,96.23
2019-01-13T02:19:32.733Z,96.24
2019-01-13T02:24:51.287Z,96.40
2019-01-13T02:30:13.132Z,96.57
2019-01-13T02:35:31.796Z,96.92
2019-01-13T02:40:50.459Z,97.34
2019-01-13T02:46:09.172Z,97.90
2019-01-13T02:51:28.454Z,97.94
2019-01-13T02:56:47.180Z,98.36
2019-01-13T03:02:06.686Z,98.45
2019-01-13T03:07:27.026Z,98.61
2019-01-13T03:12:46.174Z,98.75
2019-01-13T03:18:04.915Z,99.01
2019-01-13T03:23:23.744Z,99.04
2019-01-13T03:28:42.388Z,99.12
2019-01-13T03:34:01.042Z,99.07
2019-01-13T03:39:19.793Z,99.04
2019-01-13T03:44:38.506Z,99.08
2019-01-13T03:49:57.165Z,99.00
2019-01-13T03:55:17.033Z,99.13
2019-01-13T04:00:35.735Z,99.12
2019-01-13T04:05:54.434Z,99.46
2019-01-13T04:11:13.008Z,99.49
2019-01-13T04:16:31.701Z,99.53
2019-01-13T04:21:50.326Z,99.64
2019-01-13T04:27:09.030Z,99.58
2019-01-13T04:32:27.589Z,99.74
2019-01-13T04:37:46.203Z,100.00
2019-01-13T04:43:04.941Z,100.00
2019-01-13T04:48:23.832Z,100.00
2019-01-13T04:53:42.442Z,100.00
2019-01-13T04:59:01.600Z,100.00
2019-01-13T05:04:20.233Z,100.00
2019-01-13T05:09:38.835Z,100.00
2019-01-13T05:14:57.433Z,100.00
2019-01-13T05:20:21.163Z,100.00
2019-01-13T05:25:39.737Z,100.00
2019-01-13T05:30:58.387Z,100.00
2019-01-13T05:36:17.031Z,100.00
2019-01-13T05:41:37.496Z,100.00
2019-01-13T05:46:57.791Z,100.00
2019-01-13T05:52:18.670Z,100.00
2019-01-13T05:57:37.437Z,100.00
2019-01-13T06:02:58.202Z,100.00
2019-01-13T06:08:16.958Z,100.00
2019-01-13T06:13:37.039Z,100.00
2019-01-13T06:18:55.676Z,100.00
2019-01-13T06:24:15.688Z,100.00
2019-01-13T06:29:34.505Z,100.00
2019-01-13T06:34:53.672Z,100.00
2019-01-13T06:40:15.044Z,100.00
2019-01-13T06:45:34.101Z,100.00
2019-01-13T06:50:52.775Z,100.00
2019-01-13T06:56:11.509Z,99.88
2019-01-13T07:01:30.247Z,99.83
2019-01-13T07:06:48.890Z,99.76
2019-01-13T07:12:07.428Z,99.78
2019-01-13T07:17:27.333Z,99.72
2019-01-13T07:22:46.163Z,99.77
2019-01-13T07:28:04.870Z,99.79
2019-01-13T07:33:24.605Z,99.73
2019-01-13T07:38:43.250Z,99.65
2019-01-13T07:44:03.521Z,99.65
2019-01-13T07:49:22.141Z,99.72
2019-01-13T07:54:40.783Z,99.87
2019-01-13T07:59:59.422Z,99.81
2019-01-13T08:05:18.276Z,99.69
2019-01-13T08:10:38.483Z,99.67
2019-01-13T08:15:57.116Z,99.46
2019-01-13T08:21:15.760Z,99.71
2019-01-13T08:26:34.519Z,99.71
2019-01-13T08:31:53.272Z,99.56
2019-01-13T08:37:11.940Z,99.64
2019-01-13T08:42:30.612Z,99.74
2019-01-13T08:47:49.273Z,99.83
2019-01-13T08:53:07.968Z,99.90
2019-01-13T08:58:26.660Z,100.00
2019-01-13T09:03:45.325Z,100.00
2019-01-13T09:09:07.293Z,100.00
2019-01-13T09:14:26.011Z,100.00
2019-01-13T09:19:44.666Z,100.00
2019-01-13T09:25:03.300Z,99.99
2019-01-13T09:30:24.339Z,99.79
2019-01-13T09:35:43.235Z,99.76
2019-01-13T09:41:01.857Z,99.99
2019-01-13T09:46:20.549Z,99.82
2019-01-13T09:51:39.841Z,99.91
2019-01-13T09:56:58.534Z,99.91
2019-01-13T10:02:17.316Z,99.94
2019-01-13T10:07:36.148Z,100.00
2019-01-13T10:12:54.927Z,100.00
2019-01-13T10:18:13.591Z,99.98
2019-01-13T10:23:32.319Z,99.99
2019-01-13T10:28:51.035Z,100.00
2019-01-13T10:34:10.306Z,100.00
2019-01-13T10:39:29.175Z,100.00
2019-01-13T10:44:47.735Z,99.94
2019-01-13T10:50:09.271Z,99.90
2019-01-13T10:55:28.220Z,99.89
2019-01-13T11:00:47.170Z,100.00
2019-01-13T11:06:05.785Z,99.95
2019-01-13T11:11:24.407Z,99.85
2019-01-13T11:16:43.128Z,99.48
2019-01-13T11:22:01.822Z,99.70
2019-01-13T11:27:20.568Z,99.51
2019-01-13T11:32:39.165Z,99.38
2019-01-13T11:38:01.923Z,99.48
2019-01-13T11:43:20.703Z,98.97
2019-01-13T11:48:39.260Z,99.12
2019-01-13T11:53:57.885Z,99.03
2019-01-13T11:59:16.782Z,99.20
2019-01-13T12:04:35.432Z,99.18
2019-01-13T12:09:54.008Z,98.89
2019-01-13T12:15:14.772Z,98.99
2019-01-13T12:20:33.720Z,99.24
2019-01-13T12:25:53.026Z,99.52
2019-01-13T12:31:11.671Z,99.16
2019-01-13T12:36:30.291Z,99.50
2019-01-13T12:41:48.985Z,99.37
2019-01-13T12:47:07.695Z,99.40
2019-01-13T12:52:26.236Z,99.58
2019-01-13T12:57:45.050Z,99.53
2019-01-13T13:03:03.796Z,99.65
2019-01-13T13:08:22.414Z,99.74
2019-01-13T13:13:41.114Z,99.64
2019-01-13T13:18:59.963Z,99.72
2019-01-13T13:24:18.552Z,99.86
2019-01-13T13:29:37.181Z,99.77
2019-01-13T13:34:55.920Z,99.77
2019-01-13T13:40:17.355Z,99.67
2019-01-13T13:45:36.003Z,99.45
2019-01-13T13:50:54.561Z,99.66
2019-01-13T13:56:13.117Z,99.48
2019-01-13T14:01:31.680Z,99.43
2019-01-13T14:06:50.232Z,99.72
2019-01-13T14:12:08.858Z,99.89
2019-01-13T14:17:27.721Z,99.79
2019-01-13T14:22:46.343Z,99.64
2019-01-13T14:28:05.287Z,99.62
2019-01-13T14:33:24.062Z,99.46
2019-01-13T14:38:42.942Z,99.58
2019-01-13T14:44:01.639Z,99.57
2019-01-13T14:49:20.290Z,99.69
2019-01-13T14:54:38.815Z,99.65
2019-01-13T14:59:58.223Z,99.68
2019-01-13T15:05:16.929Z,99.72
2019-01-13T15:10:35.860Z,99.78
2019-01-13T15:15:54.451Z,99.23
2019-01-13T15:21:13.009Z,99.49
2019-01-13T15:26:32.130Z,99.26
2019-01-13T15:31:50.748Z,98.91
2019-01-13T15:37:09.493Z,98.89
2019-01-13T15:42:28.186Z,98.75
2019-01-13T15:47:48.043Z,98.87
2019-01-13T15:53:06.682Z,98.15
2019-01-13T15:58:25.248Z,97.85
2019-01-13T16:03:46.272Z,98.19
2019-01-13T16:09:08.436Z,97.75
2019-01-13T16:14:27.063Z,98.06
2019-01-13T16:19:45.720Z,97.93
2019-01-13T16:25:05.301Z,97.80
2019-01-13T16:30:29.119Z,97.35
2019-01-13T16:35:50.018Z,97.25
2019-01-13T16:41:10.721Z,96.89
2019-01-13T16:46:29.217Z,96.58
2019-01-13T16:57:43.218Z,96.08
2019-01-13T17:03:01.899Z,95.98
2019-01-13T17:14:15.992Z,95.16
2019-01-13T17:19:35.486Z,95.19
2019-01-13T17:24:54.216Z,94.81
2019-01-13T17:30:15.980Z,95.31
2019-01-13T17:35:34.683Z,95.25
2019-01-13T17:40:53.455Z,95.69
2019-01-13T17:46:12.076Z,95.72
2019-01-13T17:51:32.354Z,95.37
2019-01-13T17:56:52.287Z,94.66
2019-01-13T18:02:11.086Z,94.25
2019-01-13T18:07:29.742Z,93.50
2019-01-13T18:12:48.475Z,93.23
2019-01-13T18:18:07.106Z,93.56
2019-01-13T18:23:25.787Z,95.47
2019-01-13T18:28:44.425Z,91.89
2019-01-13T18:34:02.985Z,92.68
2019-01-13T18:39:21.606Z,92.61
2019-01-13T18:44:40.313Z,93.00
2019-01-13T18:50:00.531Z,93.21
2019-01-13T18:55:19.298Z,93.35
2019-01-13T19:00:37.971Z,92.94
2019-01-13T19:05:58.340Z,93.29
2019-01-13T19:11:18.892Z,93.29
2019-01-13T19:16:39.917Z,93.36
2019-01-13T19:21:58.696Z,92.24
2019-01-13T19:27:17.391Z,92.35
2019-01-13T19:32:36.189Z,91.79
2019-01-13T19:37:54.867Z,91.69
2019-01-13T19:43:13.940Z,91.77
2019-01-13T19:48:32.585Z,91.50
2019-01-13T19:53:51.576Z,91.94
2019-01-13T19:59:10.252Z,91.96
2019-01-13T20:04:28.878Z,91.96
2019-01-13T20:09:47.498Z,92.50
2019-01-13T20:15:09.035Z,92.64
2019-01-13T20:20:27.681Z,92.06
2019-01-13T20:25:46.246Z,92.26
2019-01-13T20:31:04.978Z,92.18
2019-01-13T20:36:23.778Z,92.32
2019-01-13T20:41:42.244Z,92.56
2019-01-13T20:47:00.984Z,92.97
2019-01-13T20:52:19.559Z,93.29
2019-01-13T20:57:38.166Z,92.82
2019-01-13T21:02:57.108Z,92.94
2019-01-13T21:08:18.988Z,91.98
2019-01-13T21:13:40.097Z,91.10
2019-01-13T21:18:58.789Z,87.50
2019-01-13T21:24:17.383Z,86.24
2019-01-13T21:29:36.025Z,89.75
2019-01-13T21:34:54.610Z,89.83
2019-01-13T21:40:53.184Z,91.58
2019-01-13T21:46:11.715Z,91.04
2019-01-13T21:51:30.183Z,91.62
2019-01-13T21:56:48.639Z,89.67
2019-01-13T22:02:07.256Z,91.15
2019-01-13T22:07:25.868Z,91.39
2019-01-13T22:12:44.480Z,91.65
2019-01-13T22:18:03.070Z,91.35
2019-01-13T22:23:21.797Z,92.41
2019-01-13T22:28:40.326Z,93.34
2019-01-13T22:33:58.803Z,93.74
2019-01-13T22:39:17.274Z,93.14
2019-01-13T22:44:35.869Z,93.28
2019-01-13T22:49:54.371Z,92.89
2019-01-13T22:55:12.982Z,92.03
2019-01-13T23:01:11.365Z,91.00
2019-01-13T23:06:29.841Z,91.33
2019-01-13T23:11:48.455Z,90.80
2019-01-13T23:17:07.260Z,90.47
2019-01-13T23:22:25.876Z,91.34
2019-01-13T23:27:44.398Z,91.48
2019-01-13T23:38:33.441Z,89.30
2019-01-13T23:43:51.990Z,88.09
2019-01-13T23:54:42.600Z,87.26
